Terminal Aerodrome Forecast
Issued by NWS

Home | Current Version | Previous Version | Text Only | Print | Product List | Glossary On
Versions: 1 2 3 4 5 6 7 8 9 10 11 12
000
FTUS45 KRIW 061123
TAFWRL
TAF
KWRL 061123Z 0612/0712 34005KT P6SM SCT080 BKN120
     FM061400 34013G21KT P6SM SCT050 BKN090
     FM062100 34018G26KT P6SM VCTS SCT030CB BKN050
     FM070200 34015G25KT 6SM -RA SCT020 BKN035
     FM070700 34013KT 5SM -RA SCT015 BKN025=

USA.gov is the U.S. government's official web portal to all federal, state and local government web resources and services.